sensor_id;sensor_type;location;lat;lon;timestamp;pressure;altitude;pressure_sealevel;temperature;humidity
75998;BME280;64685;48.762;44.822;2023-06-22T00:01:15;101218.44;;;17.45;53.42
75998;BME280;64685;48.762;44.822;2023-06-22T00:06:18;101223.28;;;17.44;53.88
75998;BME280;64685;48.762;44.822;2023-06-22T00:11:20;101224.19;;;17.36;54.49
75998;BME280;64685;48.762;44.822;2023-06-22T00:16:23;101226.69;;;17.26;54.41
75998;BME280;64685;48.762;44.822;2023-06-22T00:21:29;101219.66;;;17.20;54.86
75998;BME280;64685;48.762;44.822;2023-06-22T00:26:32;101225.53;;;17.15;54.73
75998;BME280;64685;48.762;44.822;2023-06-22T00:31:35;101230.44;;;17.18;53.87
75998;BME280;64685;48.762;44.822;2023-06-22T00:36:37;101247.38;;;17.18;53.09
75998;BME280;64685;48.762;44.822;2023-06-22T00:41:42;101246.25;;;17.19;52.41
75998;BME280;64685;48.762;44.822;2023-06-22T00:46:45;101251.66;;;17.24;51.46
75998;BME280;64685;48.762;44.822;2023-06-22T00:51:47;101261.63;;;17.33;51.43
75998;BME280;64685;48.762;44.822;2023-06-22T00:56:54;101249.84;;;17.31;51.79
75998;BME280;64685;48.762;44.822;2023-06-22T01:01:58;101261.25;;;17.35;51.52
75998;BME280;64685;48.762;44.822;2023-06-22T01:12:08;101266.56;;;17.36;51.00
75998;BME280;64685;48.762;44.822;2023-06-22T01:17:12;101270.22;;;17.25;51.28
75998;BME280;64685;48.762;44.822;2023-06-22T01:22:16;101265.03;;;17.27;51.01
75998;BME280;64685;48.762;44.822;2023-06-22T01:32:33;101268.81;;;17.19;50.49
75998;BME280;64685;48.762;44.822;2023-06-22T01:37:37;101277.97;;;17.16;50.64
75998;BME280;64685;48.762;44.822;2023-06-22T01:42:41;101278.81;;;17.28;49.86
75998;BME280;64685;48.762;44.822;2023-06-22T01:47:45;101279.81;;;17.72;48.77
75998;BME280;64685;48.762;44.822;2023-06-22T01:52:48;101289.59;;;18.02;47.91
75998;BME280;64685;48.762;44.822;2023-06-22T01:57:51;101286.59;;;18.50;46.73
75998;BME280;64685;48.762;44.822;2023-06-22T02:02:58;101299.31;;;18.87;45.63
75998;BME280;64685;48.762;44.822;2023-06-22T02:13:07;101316.13;;;19.57;44.15
75998;BME280;64685;48.762;44.822;2023-06-22T02:18:12;101319.16;;;19.83;43.54
75998;BME280;64685;48.762;44.822;2023-06-22T02:23:14;101323.25;;;20.05;42.64
75998;BME280;64685;48.762;44.822;2023-06-22T02:28:17;101329.16;;;20.12;42.23
75998;BME280;64685;48.762;44.822;2023-06-22T02:33:20;101337.03;;;20.60;40.84
75998;BME280;64685;48.762;44.822;2023-06-22T02:38:22;101352.22;;;19.95;41.70
75998;BME280;64685;48.762;44.822;2023-06-22T02:43:27;101351.28;;;20.06;41.92
75998;BME280;64685;48.762;44.822;2023-06-22T02:48:29;101351.34;;;20.67;41.69
75998;BME280;64685;48.762;44.822;2023-06-22T02:53:32;101358.34;;;19.97;42.85
75998;BME280;64685;48.762;44.822;2023-06-22T02:58:34;101358.59;;;20.83;40.97
75998;BME280;64685;48.762;44.822;2023-06-22T03:03:44;101358.72;;;21.32;39.11
75998;BME280;64685;48.762;44.822;2023-06-22T03:08:47;101375.88;;;21.61;39.40
75998;BME280;64685;48.762;44.822;2023-06-22T03:13:50;101374.56;;;22.33;38.45
75998;BME280;64685;48.762;44.822;2023-06-22T03:18:54;101384.22;;;21.28;39.41
75998;BME280;64685;48.762;44.822;2023-06-22T03:23:56;101388.28;;;22.28;38.07
75998;BME280;64685;48.762;44.822;2023-06-22T03:28:59;101401.72;;;23.70;35.79
75998;BME280;64685;48.762;44.822;2023-06-22T03:34:03;101402.81;;;24.63;35.71
75998;BME280;64685;48.762;44.822;2023-06-22T03:39:05;101407.88;;;25.15;34.56
75998;BME280;64685;48.762;44.822;2023-06-22T03:44:08;101414.94;;;25.66;33.63
75998;BME280;64685;48.762;44.822;2023-06-22T03:49:14;101422.72;;;25.87;33.23
75998;BME280;64685;48.762;44.822;2023-06-22T03:54:17;101426.75;;;26.45;33.22
75998;BME280;64685;48.762;44.822;2023-06-22T03:59:19;101437.28;;;26.80;32.40
75998;BME280;64685;48.762;44.822;2023-06-22T04:04:22;101437.19;;;27.01;32.23
75998;BME280;64685;48.762;44.822;2023-06-22T04:09:24;101438.94;;;27.53;31.41
75998;BME280;64685;48.762;44.822;2023-06-22T04:14:27;101437.34;;;26.52;31.95
75998;BME280;64685;48.762;44.822;2023-06-22T04:19:29;101445.81;;;27.01;30.46
75998;BME280;64685;48.762;44.822;2023-06-22T04:24:32;101459.94;;;26.11;30.96
75998;BME280;64685;48.762;44.822;2023-06-22T04:29:35;101450.44;;;27.53;29.50
75998;BME280;64685;48.762;44.822;2023-06-22T04:34:37;101452.66;;;28.74;28.01
75998;BME280;64685;48.762;44.822;2023-06-22T04:39:40;101456.53;;;29.80;27.45
75998;BME280;64685;48.762;44.822;2023-06-22T04:44:42;101457.56;;;29.67;26.35
75998;BME280;64685;48.762;44.822;2023-06-22T04:49:45;101457.59;;;30.16;25.81
75998;BME280;64685;48.762;44.822;2023-06-22T04:54:47;101473.25;;;31.23;25.02
75998;BME280;64685;48.762;44.822;2023-06-22T04:59:50;101473.31;;;31.20;25.33
75998;BME280;64685;48.762;44.822;2023-06-22T05:04:52;101475.72;;;31.02;26.04
75998;BME280;64685;48.762;44.822;2023-06-22T05:10:00;101478.31;;;31.16;26.22
75998;BME280;64685;48.762;44.822;2023-06-22T05:15:06;101478.84;;;31.11;26.88
75998;BME280;64685;48.762;44.822;2023-06-22T05:20:10;101487.31;;;32.08;26.07
75998;BME280;64685;48.762;44.822;2023-06-22T05:25:13;101481.88;;;31.43;25.79
75998;BME280;64685;48.762;44.822;2023-06-22T05:30:16;101477.66;;;32.15;24.46
75998;BME280;64685;48.762;44.822;2023-06-22T05:35:23;101487.69;;;32.58;23.86
75998;BME280;64685;48.762;44.822;2023-06-22T05:40:25;101479.00;;;32.58;22.98
75998;BME280;64685;48.762;44.822;2023-06-22T05:45:29;101482.78;;;33.00;22.22
75998;BME280;64685;48.762;44.822;2023-06-22T05:50:32;101495.63;;;32.54;22.13
75998;BME280;64685;48.762;44.822;2023-06-22T05:55:35;101488.41;;;33.19;21.91
75998;BME280;64685;48.762;44.822;2023-06-22T06:00:37;101493.59;;;32.83;21.31
75998;BME280;64685;48.762;44.822;2023-06-22T06:05:40;101495.19;;;33.29;21.90
75998;BME280;64685;48.762;44.822;2023-06-22T06:10:42;101491.88;;;33.14;20.91
75998;BME280;64685;48.762;44.822;2023-06-22T06:15:45;101499.69;;;33.01;20.14
75998;BME280;64685;48.762;44.822;2023-06-22T06:20:47;101494.50;;;33.09;20.14
75998;BME280;64685;48.762;44.822;2023-06-22T06:25:50;101491.03;;;33.55;21.28
75998;BME280;64685;48.762;44.822;2023-06-22T06:30:52;101483.06;;;34.34;19.98
75998;BME280;64685;48.762;44.822;2023-06-22T06:35:55;101495.59;;;34.06;19.90
75998;BME280;64685;48.762;44.822;2023-06-22T06:40:58;101504.53;;;34.11;19.85
75998;BME280;64685;48.762;44.822;2023-06-22T06:46:00;101495.84;;;34.70;19.76
75998;BME280;64685;48.762;44.822;2023-06-22T06:51:05;101493.41;;;35.67;18.73
75998;BME280;64685;48.762;44.822;2023-06-22T06:56:11;101493.78;;;35.26;18.98
75998;BME280;64685;48.762;44.822;2023-06-22T07:01:14;101506.50;;;32.34;21.16
75998;BME280;64685;48.762;44.822;2023-06-22T07:06:16;101494.00;;;33.80;20.14
75998;BME280;64685;48.762;44.822;2023-06-22T07:11:19;101503.09;;;33.66;20.25
75998;BME280;64685;48.762;44.822;2023-06-22T07:16:21;101499.44;;;35.08;19.40
75998;BME280;64685;48.762;44.822;2023-06-22T07:21:25;101509.97;;;34.93;18.96
75998;BME280;64685;48.762;44.822;2023-06-22T07:26:27;101496.69;;;35.26;18.70
75998;BME280;64685;48.762;44.822;2023-06-22T07:31:30;101510.09;;;32.99;20.48
75998;BME280;64685;48.762;44.822;2023-06-22T07:36:32;101505.31;;;33.21;20.86
75998;BME280;64685;48.762;44.822;2023-06-22T07:41:35;101507.25;;;35.20;19.19
75998;BME280;64685;48.762;44.822;2023-06-22T07:46:37;101509.25;;;33.14;20.84
75998;BME280;64685;48.762;44.822;2023-06-22T07:51:40;101496.13;;;34.51;19.94
75998;BME280;64685;48.762;44.822;2023-06-22T07:56:42;101509.38;;;32.02;21.21
75998;BME280;64685;48.762;44.822;2023-06-22T08:01:45;101513.94;;;30.21;22.64
75998;BME280;64685;48.762;44.822;2023-06-22T08:06:48;101511.44;;;31.31;21.35
75998;BME280;64685;48.762;44.822;2023-06-22T08:11:51;101529.28;;;31.26;21.43
75998;BME280;64685;48.762;44.822;2023-06-22T08:16:54;101518.88;;;29.94;21.66
75998;BME280;64685;48.762;44.822;2023-06-22T08:21:56;101517.81;;;32.29;20.45
75998;BME280;64685;48.762;44.822;2023-06-22T08:26:59;101515.22;;;31.63;20.67
75998;BME280;64685;48.762;44.822;2023-06-22T08:32:03;101504.91;;;33.06;19.95
75998;BME280;64685;48.762;44.822;2023-06-22T08:37:06;101512.91;;;30.08;21.52
75998;BME280;64685;48.762;44.822;2023-06-22T08:42:08;101502.28;;;30.28;21.44
75998;BME280;64685;48.762;44.822;2023-06-22T08:47:11;101514.31;;;30.23;22.08
75998;BME280;64685;48.762;44.822;2023-06-22T08:52:13;101515.00;;;32.57;20.79
75998;BME280;64685;48.762;44.822;2023-06-22T08:57:16;101510.47;;;32.24;20.94
75998;BME280;64685;48.762;44.822;2023-06-22T09:02:18;101513.84;;;31.87;20.27
75998;BME280;64685;48.762;44.822;2023-06-22T09:07:22;101523.59;;;32.45;19.78
75998;BME280;64685;48.762;44.822;2023-06-22T09:12:25;101527.63;;;29.60;21.43
75998;BME280;64685;48.762;44.822;2023-06-22T09:17:29;101512.50;;;30.32;21.00
75998;BME280;64685;48.762;44.822;2023-06-22T09:22:31;101522.41;;;32.26;19.61
75998;BME280;64685;48.762;44.822;2023-06-22T09:27:34;101512.84;;;33.18;18.88
75998;BME280;64685;48.762;44.822;2023-06-22T09:32:37;101512.03;;;33.59;18.82
75998;BME280;64685;48.762;44.822;2023-06-22T09:37:40;101514.47;;;32.75;18.58
75998;BME280;64685;48.762;44.822;2023-06-22T09:42:42;101511.47;;;32.50;18.55
75998;BME280;64685;48.762;44.822;2023-06-22T09:47:45;101513.09;;;32.51;18.00
75998;BME280;64685;48.762;44.822;2023-06-22T09:52:47;101506.69;;;32.88;18.24
75998;BME280;64685;48.762;44.822;2023-06-22T09:57:52;101519.72;;;33.78;17.33
75998;BME280;64685;48.762;44.822;2023-06-22T10:02:57;101522.09;;;32.69;18.35
75998;BME280;64685;48.762;44.822;2023-06-22T10:08:02;101511.66;;;33.03;18.55
75998;BME280;64685;48.762;44.822;2023-06-22T10:13:09;101516.06;;;32.15;17.37
75998;BME280;64685;48.762;44.822;2023-06-22T10:18:13;101519.31;;;32.65;16.98
75998;BME280;64685;48.762;44.822;2023-06-22T10:23:15;101516.81;;;32.35;17.88
75998;BME280;64685;48.762;44.822;2023-06-22T10:28:18;101512.34;;;32.79;17.65
75998;BME280;64685;48.762;44.822;2023-06-22T10:33:20;101498.06;;;32.08;17.80
75998;BME280;64685;48.762;44.822;2023-06-22T10:38:23;101498.81;;;30.59;18.00
75998;BME280;64685;48.762;44.822;2023-06-22T10:43:26;101491.09;;;29.80;18.62
75998;BME280;64685;48.762;44.822;2023-06-22T10:48:28;101492.03;;;29.44;18.66
75998;BME280;64685;48.762;44.822;2023-06-22T10:53:31;101489.22;;;28.33;19.60
75998;BME280;64685;48.762;44.822;2023-06-22T10:58:34;101485.47;;;27.88;19.56
75998;BME280;64685;48.762;44.822;2023-06-22T11:03:36;101478.63;;;26.89;21.35
75998;BME280;64685;48.762;44.822;2023-06-22T11:08:39;101490.16;;;26.51;22.09
75998;BME280;64685;48.762;44.822;2023-06-22T11:13:54;101481.56;;;26.72;22.48
75998;BME280;64685;48.762;44.822;2023-06-22T11:18:56;101477.88;;;26.64;22.55
75998;BME280;64685;48.762;44.822;2023-06-22T11:23:59;101490.56;;;26.67;22.81
75998;BME280;64685;48.762;44.822;2023-06-22T11:29:02;101488.44;;;26.88;22.73
75998;BME280;64685;48.762;44.822;2023-06-22T11:34:07;101491.75;;;26.80;22.25
75998;BME280;64685;48.762;44.822;2023-06-22T11:39:10;101493.81;;;26.79;22.63
75998;BME280;64685;48.762;44.822;2023-06-22T11:44:13;101493.03;;;26.51;22.34
75998;BME280;64685;48.762;44.822;2023-06-22T11:49:15;101488.56;;;26.32;23.19
75998;BME280;64685;48.762;44.822;2023-06-22T11:54:18;101487.34;;;26.33;23.15
75998;BME280;64685;48.762;44.822;2023-06-22T11:59:20;101485.69;;;26.29;23.35
75998;BME280;64685;48.762;44.822;2023-06-22T12:04:24;101486.97;;;26.14;23.22
75998;BME280;64685;48.762;44.822;2023-06-22T12:09:27;101486.53;;;26.08;23.98
75998;BME280;64685;48.762;44.822;2023-06-22T12:14:29;101495.13;;;25.91;23.69
75998;BME280;64685;48.762;44.822;2023-06-22T12:19:33;101493.00;;;25.67;23.58
75998;BME280;64685;48.762;44.822;2023-06-22T12:24:36;101495.47;;;25.79;24.33
75998;BME280;64685;48.762;44.822;2023-06-22T12:29:38;101490.59;;;25.69;24.16
75998;BME280;64685;48.762;44.822;2023-06-22T12:34:42;101497.06;;;25.45;23.53
75998;BME280;64685;48.762;44.822;2023-06-22T12:39:45;101480.59;;;25.14;23.56
75998;BME280;64685;48.762;44.822;2023-06-22T12:44:47;101474.16;;;25.31;24.49
75998;BME280;64685;48.762;44.822;2023-06-22T12:49:50;101483.56;;;25.35;24.65
75998;BME280;64685;48.762;44.822;2023-06-22T12:54:53;101480.59;;;25.07;23.74
75998;BME280;64685;48.762;44.822;2023-06-22T12:59:57;101484.59;;;24.92;23.60
75998;BME280;64685;48.762;44.822;2023-06-22T13:05:02;101473.88;;;24.68;23.35
75998;BME280;64685;48.762;44.822;2023-06-22T13:10:05;101484.44;;;24.60;23.48
75998;BME280;64685;48.762;44.822;2023-06-22T13:15:08;101472.41;;;24.34;23.18
75998;BME280;64685;48.762;44.822;2023-06-22T13:20:10;101477.78;;;24.46;24.51
75998;BME280;64685;48.762;44.822;2023-06-22T13:25:13;101469.59;;;24.44;24.59
75998;BME280;64685;48.762;44.822;2023-06-22T13:30:21;101471.16;;;24.31;24.90
75998;BME280;64685;48.762;44.822;2023-06-22T13:35:23;101474.38;;;24.26;25.28
75998;BME280;64685;48.762;44.822;2023-06-22T13:40:26;101479.84;;;23.95;24.40
75998;BME280;64685;48.762;44.822;2023-06-22T13:45:28;101468.78;;;23.90;24.74
75998;BME280;64685;48.762;44.822;2023-06-22T13:50:31;101472.47;;;23.90;25.25
75998;BME280;64685;48.762;44.822;2023-06-22T13:55:34;101476.38;;;23.75;26.04
75998;BME280;64685;48.762;44.822;2023-06-22T14:00:36;101475.53;;;23.71;26.12
75998;BME280;64685;48.762;44.822;2023-06-22T14:05:41;101472.22;;;23.66;25.91
75998;BME280;64685;48.762;44.822;2023-06-22T14:10:43;101480.25;;;23.53;25.45
75998;BME280;64685;48.762;44.822;2023-06-22T14:15:46;101488.31;;;23.48;25.17
75998;BME280;64685;48.762;44.822;2023-06-22T14:20:50;101481.69;;;23.37;25.05
75998;BME280;64685;48.762;44.822;2023-06-22T14:25:52;101480.16;;;23.43;25.38
75998;BME280;64685;48.762;44.822;2023-06-22T14:30:55;101487.34;;;23.33;24.87
75998;BME280;64685;48.762;44.822;2023-06-22T14:35:58;101480.31;;;23.24;25.44
75998;BME280;64685;48.762;44.822;2023-06-22T14:41:01;101483.53;;;23.19;25.77
75998;BME280;64685;48.762;44.822;2023-06-22T14:46:18;101485.56;;;23.18;25.26
75998;BME280;64685;48.762;44.822;2023-06-22T14:51:21;101482.94;;;23.06;25.48
75998;BME280;64685;48.762;44.822;2023-06-22T14:56:24;101478.41;;;23.02;25.74
75998;BME280;64685;48.762;44.822;2023-06-22T15:01:26;101494.25;;;22.99;25.81
75998;BME280;64685;48.762;44.822;2023-06-22T15:06:29;101480.22;;;22.84;25.71
75998;BME280;64685;48.762;44.822;2023-06-22T15:11:31;101478.03;;;22.74;25.89
75998;BME280;64685;48.762;44.822;2023-06-22T15:16:35;101490.78;;;22.54;26.28
75998;BME280;64685;48.762;44.822;2023-06-22T15:21:38;101488.22;;;22.45;26.10
75998;BME280;64685;48.762;44.822;2023-06-22T15:26:40;101495.56;;;22.46;25.99
75998;BME280;64685;48.762;44.822;2023-06-22T15:31:43;101499.28;;;22.28;26.37
75998;BME280;64685;48.762;44.822;2023-06-22T15:36:45;101488.13;;;22.16;26.44
75998;BME280;64685;48.762;44.822;2023-06-22T15:41:48;101506.84;;;22.17;26.48
75998;BME280;64685;48.762;44.822;2023-06-22T15:46:52;101509.75;;;22.20;26.49
75998;BME280;64685;48.762;44.822;2023-06-22T15:51:55;101517.06;;;22.21;26.65
75998;BME280;64685;48.762;44.822;2023-06-22T15:56:57;101517.59;;;22.27;26.64
75998;BME280;64685;48.762;44.822;2023-06-22T16:02:00;101527.44;;;22.33;26.57
75998;BME280;64685;48.762;44.822;2023-06-22T16:07:04;101514.09;;;22.37;26.49
75998;BME280;64685;48.762;44.822;2023-06-22T16:12:07;101519.78;;;22.37;26.55
75998;BME280;64685;48.762;44.822;2023-06-22T16:17:10;101527.00;;;22.31;26.84
75998;BME280;64685;48.762;44.822;2023-06-22T16:22:13;101520.75;;;22.22;27.15
75998;BME280;64685;48.762;44.822;2023-06-22T16:27:15;101524.63;;;22.10;27.19
75998;BME280;64685;48.762;44.822;2023-06-22T16:32:18;101523.56;;;21.96;27.49
75998;BME280;64685;48.762;44.822;2023-06-22T16:37:20;101526.47;;;21.77;27.86
75998;BME280;64685;48.762;44.822;2023-06-22T16:42:23;101527.78;;;21.60;28.11
75998;BME280;64685;48.762;44.822;2023-06-22T16:47:25;101540.81;;;21.42;28.36
75998;BME280;64685;48.762;44.822;2023-06-22T16:52:29;101542.41;;;21.21;28.78
75998;BME280;64685;48.762;44.822;2023-06-22T16:57:32;101543.69;;;21.04;28.90
75998;BME280;64685;48.762;44.822;2023-06-22T17:02:43;101549.78;;;20.87;29.08
75998;BME280;64685;48.762;44.822;2023-06-22T17:07:52;101544.59;;;20.74;29.29
75998;BME280;64685;48.762;44.822;2023-06-22T17:12:55;101552.50;;;20.65;29.37
75998;BME280;64685;48.762;44.822;2023-06-22T17:18:07;101557.78;;;20.47;29.80
75998;BME280;64685;48.762;44.822;2023-06-22T17:23:10;101562.63;;;20.31;29.85
75998;BME280;64685;48.762;44.822;2023-06-22T17:28:13;101566.22;;;20.13;30.20
75998;BME280;64685;48.762;44.822;2023-06-22T17:33:15;101564.25;;;20.01;30.31
75998;BME280;64685;48.762;44.822;2023-06-22T17:38:22;101572.31;;;19.99;30.38
75998;BME280;64685;48.762;44.822;2023-06-22T17:43:24;101574.59;;;19.94;30.45
75998;BME280;64685;48.762;44.822;2023-06-22T17:48:30;101576.78;;;19.85;30.79
75998;BME280;64685;48.762;44.822;2023-06-22T17:53:33;101586.56;;;19.72;30.83
75998;BME280;64685;48.762;44.822;2023-06-22T17:58:35;101588.28;;;19.61;31.30
75998;BME280;64685;48.762;44.822;2023-06-22T18:03:38;101579.72;;;19.45;31.53
75998;BME280;64685;48.762;44.822;2023-06-22T18:08:41;101575.88;;;19.38;31.54
75998;BME280;64685;48.762;44.822;2023-06-22T18:13:44;101584.31;;;19.22;32.35
75998;BME280;64685;48.762;44.822;2023-06-22T18:18:47;101581.50;;;19.10;32.64
75998;BME280;64685;48.762;44.822;2023-06-22T18:23:50;101584.22;;;19.07;32.66
75998;BME280;64685;48.762;44.822;2023-06-22T18:28:55;101588.94;;;19.03;32.79
75998;BME280;64685;48.762;44.822;2023-06-22T18:33:58;101588.53;;;18.89;33.39
75998;BME280;64685;48.762;44.822;2023-06-22T18:39:02;101584.75;;;18.85;33.30
75998;BME280;64685;48.762;44.822;2023-06-22T18:44:28;101577.13;;;18.73;33.72
75998;BME280;64685;48.762;44.822;2023-06-22T18:49:47;101583.84;;;18.69;33.71
75998;BME280;64685;48.762;44.822;2023-06-22T18:54:50;101572.06;;;18.67;33.42
75998;BME280;64685;48.762;44.822;2023-06-22T19:05:17;101572.34;;;18.50;33.98
75998;BME280;64685;48.762;44.822;2023-06-22T19:15:40;101575.16;;;18.50;34.81
75998;BME280;64685;48.762;44.822;2023-06-22T19:20:46;101578.13;;;18.41;35.04
75998;BME280;64685;48.762;44.822;2023-06-22T19:25:49;101580.56;;;18.31;35.42
75998;BME280;64685;48.762;44.822;2023-06-22T19:30:56;101585.41;;;18.18;35.92
75998;BME280;64685;48.762;44.822;2023-06-22T19:36:00;101577.50;;;18.12;35.95
75998;BME280;64685;48.762;44.822;2023-06-22T19:41:08;101570.88;;;18.08;35.93
75998;BME280;64685;48.762;44.822;2023-06-22T19:46:11;101581.38;;;18.07;36.08
75998;BME280;64685;48.762;44.822;2023-06-22T19:51:14;101581.72;;;17.94;36.98
75998;BME280;64685;48.762;44.822;2023-06-22T19:56:20;101579.34;;;17.84;37.36
75998;BME280;64685;48.762;44.822;2023-06-22T20:01:23;101587.34;;;17.82;37.49
75998;BME280;64685;48.762;44.822;2023-06-22T20:06:26;101602.44;;;17.86;37.43
75998;BME280;64685;48.762;44.822;2023-06-22T20:11:30;101598.31;;;17.83;37.80
75998;BME280;64685;48.762;44.822;2023-06-22T20:16:45;101594.75;;;17.74;38.39
75998;BME280;64685;48.762;44.822;2023-06-22T20:21:49;101601.47;;;17.70;38.47
75998;BME280;64685;48.762;44.822;2023-06-22T20:26:51;101605.69;;;17.64;38.97
75998;BME280;64685;48.762;44.822;2023-06-22T20:32:09;101606.75;;;17.71;39.01
75998;BME280;64685;48.762;44.822;2023-06-22T20:37:14;101613.69;;;17.74;38.67
75998;BME280;64685;48.762;44.822;2023-06-22T20:42:17;101603.81;;;17.80;38.81
75998;BME280;64685;48.762;44.822;2023-06-22T20:47:20;101603.34;;;17.78;38.80
75998;BME280;64685;48.762;44.822;2023-06-22T20:52:23;101600.75;;;17.73;38.80
75998;BME280;64685;48.762;44.822;2023-06-22T20:57:26;101591.09;;;17.74;38.79
75998;BME280;64685;48.762;44.822;2023-06-22T21:02:28;101595.31;;;17.68;39.16
75998;BME280;64685;48.762;44.822;2023-06-22T21:07:31;101580.81;;;17.57;39.83
75998;BME280;64685;48.762;44.822;2023-06-22T21:12:33;101586.03;;;17.67;39.47
75998;BME280;64685;48.762;44.822;2023-06-22T21:17:36;101590.16;;;17.70;39.44
75998;BME280;64685;48.762;44.822;2023-06-22T21:22:38;101581.94;;;17.77;39.24
75998;BME280;64685;48.762;44.822;2023-06-22T21:27:42;101588.78;;;17.88;39.05
75998;BME280;64685;48.762;44.822;2023-06-22T21:32:45;101585.63;;;17.89;39.11
75998;BME280;64685;48.762;44.822;2023-06-22T21:37:48;101586.63;;;17.85;39.76
75998;BME280;64685;48.762;44.822;2023-06-22T21:42:50;101581.59;;;17.78;40.58
75998;BME280;64685;48.762;44.822;2023-06-22T21:47:53;101582.03;;;17.68;41.14
75998;BME280;64685;48.762;44.822;2023-06-22T21:52:55;101579.50;;;17.55;42.32
75998;BME280;64685;48.762;44.822;2023-06-22T21:57:58;101586.31;;;17.42;42.99
75998;BME280;64685;48.762;44.822;2023-06-22T22:03:01;101595.66;;;17.34;43.06
75998;BME280;64685;48.762;44.822;2023-06-22T22:08:04;101584.94;;;17.27;43.50
75998;BME280;64685;48.762;44.822;2023-06-22T22:13:06;101584.94;;;17.27;43.09
75998;BME280;64685;48.762;44.822;2023-06-22T22:18:10;101581.53;;;17.34;43.34
75998;BME280;64685;48.762;44.822;2023-06-22T22:23:13;101586.84;;;17.35;42.98
75998;BME280;64685;48.762;44.822;2023-06-22T22:28:16;101585.41;;;17.29;42.66
75998;BME280;64685;48.762;44.822;2023-06-22T22:33:19;101579.88;;;17.33;42.43
75998;BME280;64685;48.762;44.822;2023-06-22T22:38:21;101566.59;;;17.33;42.26
75998;BME280;64685;48.762;44.822;2023-06-22T22:43:24;101574.88;;;17.38;42.19
75998;BME280;64685;48.762;44.822;2023-06-22T22:48:27;101578.34;;;17.35;41.83
75998;BME280;64685;48.762;44.822;2023-06-22T22:53:33;101584.16;;;17.39;41.42
75998;BME280;64685;48.762;44.822;2023-06-22T22:58:36;101573.19;;;17.37;40.90
75998;BME280;64685;48.762;44.822;2023-06-22T23:03:41;101572.38;;;17.37;40.74
75998;BME280;64685;48.762;44.822;2023-06-22T23:08:47;101572.13;;;17.30;40.82
75998;BME280;64685;48.762;44.822;2023-06-22T23:13:58;101577.53;;;17.35;40.56
75998;BME280;64685;48.762;44.822;2023-06-22T23:19:00;101579.06;;;17.32;40.56
75998;BME280;64685;48.762;44.822;2023-06-22T23:24:03;101579.75;;;17.29;40.54
75998;BME280;64685;48.762;44.822;2023-06-22T23:29:06;101571.50;;;17.24;40.75
75998;BME280;64685;48.762;44.822;2023-06-22T23:34:08;101568.75;;;17.16;41.08
75998;BME280;64685;48.762;44.822;2023-06-22T23:39:11;101567.56;;;17.17;41.08
75998;BME280;64685;48.762;44.822;2023-06-22T23:44:14;101571.91;;;17.14;40.94
75998;BME280;64685;48.762;44.822;2023-06-22T23:49:17;101567.03;;;17.23;41.30
75998;BME280;64685;48.762;44.822;2023-06-22T23:54:19;101573.06;;;17.34;40.67
75998;BME280;64685;48.762;44.822;2023-06-22T23:59:22;101577.97;;;17.25;40.74
